Time;durP1;ratioP1;P1;durP2;ratioP2;P2;SDS_P1;SDS_P2;PMS_P1;PMS_P2;Temp;Humidity;BMP_temperature;BMP_pressure;BME280_temperature;BME280_humidity;BME280_pressure;Samples;Min_cycle;Max_cycle;Signal;HPM_P1;HPM_P2
2022/01/27 00:01:01;;;;;;;30.10;18.73;;;4.80;92.60;;;;;;2079427;28;20096;-90
2022/01/27 00:04:33;;;;;;;29.45;18.75;;;4.80;92.60;;;;;;2087787;28;20063;-91
2022/01/27 00:05:34;;;;;;;28.27;18.30;;;4.80;92.60;;;;;;2094881;28;20047;-90
2022/01/27 00:06:36;;;;;;;30.65;19.05;;;4.80;92.60;;;;;;2090420;28;20033;-90
2022/01/27 00:07:37;;;;;;;29.95;18.95;;;4.80;92.60;;;;;;2078597;28;20491;-91
2022/01/27 00:10:09;;;;;;;28.35;18.40;;;4.80;92.60;;;;;;2090765;28;20078;-90
2022/01/27 00:11:13;;;;;;;28.38;18.58;;;4.80;92.60;;;;;;2090899;28;20033;-90
2022/01/27 00:12:18;;;;;;;25.75;16.77;;;4.80;92.60;;;;;;2075813;28;20523;-90
2022/01/27 00:13:27;;;;;;;27.48;18.23;;;4.80;92.60;;;;;;2075113;28;20042;-90
2022/01/27 00:14:28;;;;;;;26.05;17.25;;;4.80;92.50;;;;;;2073573;28;20051;-90
2022/01/27 00:15:32;;;;;;;28.25;18.92;;;4.80;92.60;;;;;;2081616;28;20215;-90
2022/01/27 00:16:39;;;;;;;27.92;18.30;;;4.80;92.60;;;;;;2079490;28;20053;-90
2022/01/27 00:17:56;;;;;;;25.50;17.45;;;4.80;92.50;;;;;;2073381;28;20041;-91
2022/01/27 00:18:57;;;;;;;29.70;18.58;;;4.80;92.50;;;;;;2081584;28;20040;-91
2022/01/27 00:19:58;;;;;;;26.23;17.30;;;4.80;92.50;;;;;;2073639;28;20117;-90
2022/01/27 00:20:59;;;;;;;26.50;17.23;;;4.80;92.50;;;;;;2076309;28;20092;-90
2022/01/27 00:21:59;;;;;;;25.55;17.23;;;4.80;92.50;;;;;;2081838;28;20454;-89
2022/01/27 00:23:00;;;;;;;23.75;15.55;;;4.80;92.60;;;;;;2094493;28;20045;-90
2022/01/27 00:24:01;;;;;;;25.92;16.48;;;4.80;92.60;;;;;;2098203;28;20041;-90
2022/01/27 00:25:03;;;;;;;25.50;16.08;;;4.80;92.60;;;;;;2086522;28;20037;-90
2022/01/27 00:26:04;;;;;;;25.55;16.73;;;4.90;92.60;;;;;;2096725;28;20519;-90
2022/01/27 00:27:04;;;;;;;25.38;16.15;;;4.80;92.50;;;;;;2095353;28;20045;-91
2022/01/27 00:28:05;;;;;;;25.60;16.52;;;4.80;92.50;;;;;;2081186;28;20512;-90
2022/01/27 00:29:06;;;;;;;24.80;16.13;;;4.80;92.50;;;;;;2095679;28;20113;-90
2022/01/27 00:30:08;;;;;;;25.50;16.67;;;4.90;92.60;;;;;;2094750;28;20446;-90
2022/01/27 00:31:10;;;;;;;24.83;15.88;;;4.80;92.50;;;;;;2093734;28;20102;-91
2022/01/27 00:32:10;;;;;;;23.30;15.50;;;4.80;92.50;;;;;;2090615;28;20423;-89
2022/01/27 00:33:11;;;;;;;22.48;15.32;;;4.90;92.60;;;;;;2090850;28;20131;-90
2022/01/27 00:34:11;;;;;;;25.30;16.05;;;4.90;92.50;;;;;;2084804;28;20084;-89
2022/01/27 00:35:12;;;;;;;23.38;15.88;;;4.80;92.50;;;;;;2084317;28;20041;-90
2022/01/27 00:36:13;;;;;;;23.05;15.23;;;4.90;92.50;;;;;;2086860;28;20099;-90
2022/01/27 00:37:14;;;;;;;25.17;15.35;;;4.90;92.50;;;;;;2090421;28;20048;-90
2022/01/27 00:38:14;;;;;;;25.27;16.33;;;4.90;92.80;;;;;;2090681;28;20044;-90
2022/01/27 00:39:15;;;;;;;22.95;15.77;;;4.90;92.50;;;;;;2080957;28;20095;-90
2022/01/27 00:40:16;;;;;;;27.30;17.20;;;4.90;92.50;;;;;;2090068;28;20487;-90
2022/01/27 00:41:19;;;;;;;26.08;16.75;;;4.90;92.50;;;;;;2086732;28;20040;-90
2022/01/27 00:42:20;;;;;;;25.50;16.52;;;4.90;92.40;;;;;;2082053;28;20029;-90
2022/01/27 00:43:22;;;;;;;27.52;16.40;;;4.90;92.70;;;;;;2080716;28;20582;-90
2022/01/27 00:44:22;;;;;;;23.60;15.68;;;4.90;92.40;;;;;;2081672;28;20030;-90
2022/01/27 00:45:24;;;;;;;25.08;16.10;;;4.90;92.40;;;;;;2077147;28;20377;-90
2022/01/27 00:46:25;;;;;;;23.25;16.00;;;4.90;92.40;;;;;;2083608;28;20025;-90
2022/01/27 00:47:25;;;;;;;25.98;15.77;;;4.90;92.40;;;;;;2081640;28;20033;-90
2022/01/27 00:48:26;;;;;;;24.80;16.02;;;4.90;92.40;;;;;;2073585;28;20408;-90
2022/01/27 00:49:27;;;;;;;25.45;16.73;;;4.90;92.40;;;;;;2089907;28;20068;-90
2022/01/27 00:50:27;;;;;;;25.38;16.58;;;4.90;92.30;;;;;;2097844;28;20458;-90
2022/01/27 00:51:34;;;;;;;28.38;16.95;;;4.90;92.30;;;;;;2081161;28;20068;-90
2022/01/27 00:52:42;;;;;;;25.25;16.05;;;4.90;92.30;;;;;;2074295;28;20038;-90
2022/01/27 00:54:44;;;;;;;25.00;15.55;;;4.90;92.30;;;;;;2077084;28;20046;-89
2022/01/27 00:55:45;;;;;;;22.67;15.68;;;4.90;92.30;;;;;;2085846;28;20041;-90
2022/01/27 00:56:56;;;;;;;22.67;14.77;;;4.90;92.30;;;;;;2089437;28;20068;-90
2022/01/27 00:58:09;;;;;;;21.88;14.40;;;4.90;92.30;;;;;;2082881;28;20184;-91
2022/01/27 01:00:36;;;;;;;21.08;13.70;;;4.90;92.30;;;;;;2081434;28;20051;-90
2022/01/27 01:01:42;;;;;;;22.05;13.80;;;4.90;92.30;;;;;;2092641;28;20064;-90
2022/01/27 01:02:58;;;;;;;22.13;13.98;;;4.90;92.20;;;;;;2089239;28;20056;-90
2022/01/27 01:04:02;;;;;;;20.50;13.38;;;5.00;92.30;;;;;;2080735;28;20038;-90
2022/01/27 01:07:15;;;;;;;21.52;13.18;;;4.90;92.20;;;;;;2094798;28;20037;-90
2022/01/27 01:12:40;;;;;;;26.17;16.83;;;5.00;92.20;;;;;;2089826;28;20044;-90
2022/01/27 01:15:58;;;;;;;21.67;14.18;;;5.00;92.10;;;;;;2053118;28;20078;-90
2022/01/27 01:17:11;;;;;;;22.05;14.45;;;5.00;92.10;;;;;;2082837;28;20036;-90
2022/01/27 01:19:42;;;;;;;22.65;15.13;;;5.00;92.40;;;;;;2097853;28;20041;-91
2022/01/27 01:29:55;;;;;;;20.33;13.55;;;5.00;92.10;;;;;;2097360;28;20090;-90
2022/01/27 01:31:10;;;;;;;20.77;13.50;;;4.90;92.10;;;;;;2088683;28;20044;-92
2022/01/27 01:33:21;;;;;;;20.83;14.43;;;4.90;92.10;;;;;;2100574;28;20347;-90
2022/01/27 01:34:25;;;;;;;21.30;14.13;;;4.90;92.10;;;;;;2096676;28;20072;-90
2022/01/27 01:35:38;;;;;;;20.90;13.93;;;4.90;92.10;;;;;;2073634;28;20034;-91
2022/01/27 01:36:58;;;;;;;22.92;15.80;;;4.90;92.20;;;;;;2077319;28;20085;-90
2022/01/27 01:37:59;;;;;;;25.50;15.82;;;4.90;92.20;;;;;;2082717;28;20068;-90
2022/01/27 01:38:59;;;;;;;25.05;17.00;;;4.90;92.10;;;;;;2089256;28;20041;-90
2022/01/27 01:40:00;;;;;;;23.98;16.05;;;4.90;92.10;;;;;;2089564;28;20044;-91
2022/01/27 01:41:01;;;;;;;26.80;17.00;;;4.90;92.10;;;;;;2089016;28;20071;-90
2022/01/27 01:42:05;;;;;;;24.77;16.40;;;4.90;92.10;;;;;;2088112;28;20128;-90
2022/01/27 01:43:06;;;;;;;25.98;16.75;;;4.90;92.10;;;;;;2089041;28;20098;-90
2022/01/27 01:44:06;;;;;;;24.88;16.20;;;4.90;92.20;;;;;;2090649;28;20045;-89
2022/01/27 01:45:11;;;;;;;25.95;17.67;;;4.80;92.10;;;;;;2099689;28;20040;-90
2022/01/27 01:46:12;;;;;;;26.35;17.42;;;4.90;92.20;;;;;;2095898;28;20017;-91
2022/01/27 01:47:12;;;;;;;26.85;18.00;;;4.80;92.20;;;;;;2080031;28;20092;-91
2022/01/27 01:48:15;;;;;;;27.45;17.90;;;4.80;92.20;;;;;;2081214;28;20065;-90
2022/01/27 01:49:16;;;;;;;27.30;17.35;;;4.80;92.20;;;;;;2089226;28;20087;-90
2022/01/27 01:50:17;;;;;;;27.60;17.42;;;4.80;92.20;;;;;;2081434;28;20093;-90
2022/01/27 01:51:25;;;;;;;27.17;17.52;;;4.80;92.20;;;;;;2089399;28;20088;-91
2022/01/27 01:52:26;;;;;;;25.98;17.45;;;4.80;92.20;;;;;;2105501;28;20028;-90
2022/01/27 01:53:27;;;;;;;25.23;16.75;;;4.80;92.20;;;;;;2097753;28;20037;-90
2022/01/27 01:54:27;;;;;;;29.10;19.08;;;4.80;92.20;;;;;;2081327;28;20042;-91
2022/01/27 01:55:30;;;;;;;25.40;17.50;;;4.80;92.20;;;;;;2095916;28;20049;-90
2022/01/27 01:56:31;;;;;;;27.05;17.60;;;4.80;92.20;;;;;;2095531;28;20021;-90
2022/01/27 01:57:32;;;;;;;27.85;17.42;;;4.80;92.20;;;;;;2081115;28;20124;-90
2022/01/27 01:58:33;;;;;;;27.35;17.95;;;4.80;92.20;;;;;;2081212;28;20029;-90
2022/01/27 01:59:36;;;;;;;26.52;17.40;;;4.80;92.20;;;;;;2097285;28;20123;-91
2022/01/27 02:00:37;;;;;;;26.92;18.08;;;4.80;92.20;;;;;;2089340;28;20040;-91
2022/01/27 02:01:39;;;;;;;27.10;17.98;;;4.80;92.20;;;;;;2073333;28;20430;-90
2022/01/27 02:02:40;;;;;;;24.20;16.73;;;4.80;92.30;;;;;;2081952;28;20495;-90
2022/01/27 02:03:41;;;;;;;25.27;16.27;;;4.80;92.20;;;;;;2089563;28;20079;-91
2022/01/27 02:04:43;;;;;;;26.50;16.98;;;4.80;92.20;;;;;;2098000;28;20130;-91
2022/01/27 02:05:50;;;;;;;25.50;17.00;;;4.80;92.20;;;;;;2102429;28;20158;-91
2022/01/27 02:06:58;;;;;;;24.45;15.98;;;4.80;92.30;;;;;;2086000;28;20059;-91
2022/01/27 02:09:36;;;;;;;21.45;14.40;;;4.80;92.30;;;;;;2092231;28;20033;-90
2022/01/27 02:17:58;;;;;;;23.02;14.88;;;4.80;92.30;;;;;;2079223;28;20052;-91
2022/01/27 02:18:40;;;;;;;26.60;16.30;;;4.80;92.20;;;;;;2096171;28;20043;-91
2022/01/27 02:19:40;;;;;;;26.88;17.27;;;4.80;92.20;;;;;;2090490;28;20120;-90
2022/01/27 02:20:41;;;;;;;26.02;17.40;;;4.80;92.20;;;;;;2078959;28;20038;-91
2022/01/27 02:21:47;;;;;;;24.30;15.50;;;4.70;92.20;;;;;;2084540;28;20096;-90
2022/01/27 02:22:48;;;;;;;24.45;16.40;;;4.80;92.20;;;;;;2100860;28;20032;-90
2022/01/27 02:23:48;;;;;;;25.58;17.17;;;4.80;92.50;;;;;;2106030;28;20462;-90
2022/01/27 02:24:50;;;;;;;23.38;15.68;;;4.80;92.30;;;;;;2097629;28;20090;-91
2022/01/27 02:25:51;;;;;;;24.45;15.90;;;4.80;92.30;;;;;;2083108;28;20037;-90
2022/01/27 02:26:52;;;;;;;21.90;15.30;;;4.80;92.30;;;;;;2081027;28;20129;-90
2022/01/27 02:27:54;;;;;;;21.85;14.68;;;4.80;92.30;;;;;;2080562;28;20411;-90
2022/01/27 02:28:55;;;;;;;26.42;17.23;;;4.80;92.30;;;;;;2080803;28;20072;-90
2022/01/27 02:29:56;;;;;;;26.70;16.83;;;4.80;92.30;;;;;;2079839;28;20041;-91
2022/01/27 02:30:56;;;;;;;28.80;17.80;;;4.80;92.30;;;;;;2098174;28;20120;-90
2022/01/27 02:31:58;;;;;;;27.25;16.40;;;4.80;92.50;;;;;;2099097;28;20036;-90
2022/01/27 02:32:59;;;;;;;26.23;15.85;;;4.80;92.30;;;;;;2076523;28;20473;-90
2022/01/27 02:34:01;;;;;;;23.83;14.88;;;4.80;92.30;;;;;;2081803;28;20034;-90
2022/01/27 02:35:03;;;;;;;27.15;16.63;;;4.80;92.30;;;;;;2093836;28;20036;-90
2022/01/27 02:36:04;;;;;;;23.20;14.82;;;4.80;92.30;;;;;;2098841;28;20028;-90
2022/01/27 02:37:05;;;;;;;22.92;15.20;;;4.80;92.30;;;;;;2082224;28;20041;-90
2022/01/27 02:38:06;;;;;;;23.88;15.70;;;4.80;92.30;;;;;;2077429;28;20448;-91
2022/01/27 02:39:09;;;;;;;25.25;15.75;;;4.80;92.30;;;;;;2082737;28;20049;-90
2022/01/27 02:40:11;;;;;;;27.05;16.05;;;4.80;92.30;;;;;;2092226;28;20495;-90
2022/01/27 02:41:12;;;;;;;24.55;16.35;;;4.80;92.30;;;;;;2096851;28;20037;-91
2022/01/27 02:42:33;;;;;;;24.45;16.02;;;4.80;92.30;;;;;;2090934;28;20025;-91
2022/01/27 02:43:34;;;;;;;23.55;15.68;;;4.80;92.30;;;;;;2082334;28;20037;-90
2022/01/27 02:44:46;;;;;;;24.90;15.32;;;4.80;92.30;;;;;;2066120;28;20042;-90
2022/01/27 02:45:50;;;;;;;25.35;16.08;;;4.80;92.30;;;;;;2077536;28;20044;-90
2022/01/27 02:46:51;;;;;;;24.58;16.08;;;4.80;92.30;;;;;;2090283;28;20514;-90
2022/01/27 02:47:52;;;;;;;27.83;18.00;;;4.80;92.30;;;;;;2098434;28;20037;-90
2022/01/27 02:48:52;;;;;;;28.73;18.20;;;4.80;92.30;;;;;;2090614;28;20487;-89
2022/01/27 02:49:53;;;;;;;25.95;16.60;;;4.80;92.30;;;;;;2083010;28;20041;-91
2022/01/27 02:50:54;;;;;;;28.75;18.25;;;4.80;92.30;;;;;;2089828;28;20080;-90
2022/01/27 02:51:54;;;;;;;25.17;17.35;;;4.80;92.50;;;;;;2089137;28;20483;-91
2022/01/27 02:52:55;;;;;;;27.40;17.25;;;4.80;92.30;;;;;;2089362;28;20029;-90
2022/01/27 02:53:57;;;;;;;26.75;17.08;;;4.80;92.30;;;;;;2082329;28;20128;-91
2022/01/27 02:54:58;;;;;;;23.45;15.73;;;4.80;92.30;;;;;;2088133;28;20064;-90
2022/01/27 02:55:58;;;;;;;24.65;16.33;;;4.80;92.30;;;;;;2090755;28;20044;-90
2022/01/27 02:56:59;;;;;;;25.65;16.45;;;4.80;92.30;;;;;;2084719;28;20034;-89
2022/01/27 02:58:00;;;;;;;25.48;15.50;;;4.80;92.30;;;;;;2083644;28;20044;-90
2022/01/27 02:59:00;;;;;;;23.15;15.93;;;4.80;92.30;;;;;;2066007;28;20030;-90
2022/01/27 03:00:01;;;;;;;25.23;15.82;;;4.90;92.30;;;;;;2059992;28;20047;-90
2022/01/27 03:01:03;;;;;;;23.65;15.25;;;4.80;92.30;;;;;;2073722;28;20448;-91
2022/01/27 03:02:05;;;;;;;27.02;17.15;;;4.90;92.30;;;;;;2066536;28;20129;-90
2022/01/27 03:03:05;;;;;;;23.75;15.32;;;4.90;92.30;;;;;;2080747;28;20050;-91
2022/01/27 03:04:06;;;;;;;25.92;16.77;;;4.90;92.30;;;;;;2097320;28;20036;-90
2022/01/27 03:05:07;;;;;;;24.63;16.40;;;4.80;92.30;;;;;;2083945;28;20388;-90
2022/01/27 03:06:07;;;;;;;23.85;15.80;;;4.80;92.30;;;;;;2081979;28;20060;-90
2022/01/27 03:07:08;;;;;;;24.13;15.75;;;4.90;92.30;;;;;;2085789;28;20113;-91
2022/01/27 03:08:09;;;;;;;24.20;15.43;;;4.80;92.30;;;;;;2089457;28;20185;-90
2022/01/27 03:09:10;;;;;;;22.80;15.32;;;4.90;92.30;;;;;;2079894;28;20042;-91
2022/01/27 03:10:11;;;;;;;22.55;14.98;;;4.90;92.40;;;;;;2080503;28;20029;-90
2022/01/27 03:11:15;;;;;;;22.73;14.25;;;4.90;92.40;;;;;;2097112;28;20119;-91
2022/01/27 03:12:17;;;;;;;22.50;14.38;;;4.90;92.40;;;;;;2090203;28;20091;-91
2022/01/27 03:13:18;;;;;;;21.95;14.23;;;4.90;92.40;;;;;;2084886;28;20033;-90
2022/01/27 03:14:22;;;;;;;21.45;13.68;;;4.90;92.40;;;;;;2085507;28;20052;-90
2022/01/27 03:15:23;;;;;;;20.83;13.38;;;4.90;92.40;;;;;;2091109;28;20048;-91
2022/01/27 03:16:24;;;;;;;21.23;13.45;;;4.90;92.40;;;;;;2090547;28;20248;-91
2022/01/27 03:17:24;;;;;;;21.08;14.00;;;4.90;92.40;;;;;;2086423;28;20028;-91
2022/01/27 03:18:25;;;;;;;20.42;13.32;;;4.90;92.40;;;;;;2082422;28;20041;-90
2022/01/27 03:19:27;;;;;;;22.50;14.60;;;4.90;92.40;;;;;;2082442;28;20071;-90
2022/01/27 03:20:34;;;;;;;27.08;16.00;;;4.90;92.30;;;;;;2091080;28;20044;-91
2022/01/27 03:21:35;;;;;;;24.67;16.08;;;4.90;92.30;;;;;;2089788;28;20033;-90
2022/01/27 03:22:36;;;;;;;22.15;14.82;;;4.90;92.30;;;;;;2087668;28;20041;-91
2022/01/27 03:23:36;;;;;;;22.23;14.98;;;4.90;92.30;;;;;;2090001;28;20160;-90
2022/01/27 03:24:38;;;;;;;24.58;15.55;;;4.90;92.30;;;;;;2084717;28;20061;-91
2022/01/27 03:25:38;;;;;;;22.13;14.80;;;4.90;92.30;;;;;;2082575;28;20065;-91
2022/01/27 03:26:41;;;;;;;21.80;15.02;;;4.90;92.30;;;;;;2071976;28;20419;-91
2022/01/27 03:27:46;;;;;;;23.70;15.35;;;4.90;92.30;;;;;;2061894;28;20497;-91
2022/01/27 03:28:47;;;;;;;23.42;14.52;;;4.90;92.40;;;;;;2075537;28;20060;-91
2022/01/27 03:29:48;;;;;;;21.77;14.13;;;4.90;92.40;;;;;;2078064;28;20439;-90
2022/01/27 03:30:48;;;;;;;21.98;14.85;;;4.90;92.40;;;;;;2077621;28;20087;-90
2022/01/27 03:31:49;;;;;;;22.13;14.95;;;5.00;92.40;;;;;;2090158;28;20045;-91
2022/01/27 03:32:50;;;;;;;25.10;14.95;;;4.90;92.40;;;;;;2088820;28;20044;-91
2022/01/27 03:33:50;;;;;;;21.67;14.20;;;4.90;92.30;;;;;;2066082;28;20069;-90
2022/01/27 03:34:51;;;;;;;22.83;15.23;;;4.90;92.40;;;;;;2066828;28;20053;-90
2022/01/27 03:35:52;;;;;;;22.67;14.77;;;4.90;92.40;;;;;;2082392;28;20037;-90
2022/01/27 03:36:53;;;;;;;21.67;14.38;;;5.00;92.40;;;;;;2082543;28;20047;-91
2022/01/27 03:37:53;;;;;;;22.55;14.50;;;5.00;92.40;;;;;;2081206;28;20044;-90
2022/01/27 03:38:54;;;;;;;22.75;15.73;;;4.90;92.40;;;;;;2086745;28;20037;-91
2022/01/27 03:39:55;;;;;;;24.63;15.73;;;4.90;92.30;;;;;;2079098;28;20053;-91
2022/01/27 03:40:55;;;;;;;23.75;15.68;;;4.90;92.30;;;;;;2077127;28;20030;-90
2022/01/27 03:41:57;;;;;;;23.35;15.48;;;4.90;92.30;;;;;;2087731;28;20045;-90
2022/01/27 03:43:06;;;;;;;25.08;15.68;;;5.00;92.40;;;;;;2091563;28;20052;-90
2022/01/27 03:44:07;;;;;;;23.63;15.55;;;5.00;92.40;;;;;;2093283;28;20057;-90
2022/01/27 03:45:09;;;;;;;23.38;15.27;;;5.00;92.60;;;;;;2071105;28;20034;-90
2022/01/27 03:46:09;;;;;;;22.25;15.05;;;5.00;92.40;;;;;;2072314;28;20038;-89
2022/01/27 03:47:10;;;;;;;22.40;14.75;;;5.00;92.40;;;;;;2098418;28;20040;-91
2022/01/27 03:48:11;;;;;;;22.33;14.70;;;5.00;92.40;;;;;;2082048;28;20393;-91
2022/01/27 03:49:12;;;;;;;23.98;14.50;;;5.00;92.40;;;;;;2074031;28;20520;-91
2022/01/27 03:50:12;;;;;;;21.65;14.70;;;5.00;92.40;;;;;;2098843;28;20032;-91
2022/01/27 03:51:13;;;;;;;20.92;14.23;;;4.90;92.30;;;;;;2097928;28;20184;-91
2022/01/27 03:52:14;;;;;;;22.33;15.00;;;5.00;92.40;;;;;;2089736;28;20123;-90
2022/01/27 03:53:15;;;;;;;23.45;15.18;;;5.00;92.40;;;;;;2082835;28;20514;-90
2022/01/27 03:54:16;;;;;;;22.27;14.43;;;5.00;92.40;;;;;;2082743;28;20049;-90
2022/01/27 03:55:17;;;;;;;23.00;15.38;;;5.00;92.40;;;;;;2079535;28;20049;-91
2022/01/27 03:56:17;;;;;;;23.10;14.90;;;5.00;92.40;;;;;;2083826;28;20590;-89
2022/01/27 03:57:18;;;;;;;20.95;14.65;;;5.00;92.40;;;;;;2081555;28;20076;-90
2022/01/27 03:58:20;;;;;;;23.42;15.70;;;5.00;92.40;;;;;;2070533;28;20046;-91
2022/01/27 03:59:21;;;;;;;25.73;15.80;;;5.00;92.40;;;;;;2082027;28;20033;-91
2022/01/27 04:00:22;;;;;;;24.65;16.02;;;5.00;92.30;;;;;;2093671;28;20411;-91
2022/01/27 04:01:23;;;;;;;21.83;15.25;;;5.00;92.40;;;;;;2106180;28;20123;-91
2022/01/27 04:02:23;;;;;;;24.60;16.05;;;5.00;92.30;;;;;;2090089;28;20048;-90
2022/01/27 04:03:24;;;;;;;23.40;15.63;;;5.00;92.30;;;;;;2081044;28;20063;-90
2022/01/27 04:04:26;;;;;;;23.63;15.10;;;5.00;92.40;;;;;;2081236;28;20432;-91
2022/01/27 04:05:33;;;;;;;24.13;15.32;;;5.00;92.40;;;;;;2075786;28;20127;-90
2022/01/27 04:06:37;;;;;;;22.83;15.15;;;5.00;92.40;;;;;;2091512;28;20091;-91
2022/01/27 04:07:37;;;;;;;21.33;14.75;;;5.00;92.40;;;;;;2081978;28;20033;-90
2022/01/27 04:08:39;;;;;;;23.92;15.55;;;5.00;92.40;;;;;;2074079;28;20144;-90
2022/01/27 04:09:40;;;;;;;21.80;14.85;;;5.00;92.40;;;;;;2081886;28;20052;-90
2022/01/27 04:10:40;;;;;;;22.23;14.52;;;5.00;92.40;;;;;;2090768;28;20487;-90
2022/01/27 04:11:42;;;;;;;22.85;15.05;;;5.00;92.40;;;;;;2098414;28;20110;-91
2022/01/27 04:12:43;;;;;;;22.63;14.63;;;5.00;92.40;;;;;;2089279;28;20567;-90
2022/01/27 04:13:43;;;;;;;19.15;12.93;;;5.00;92.40;;;;;;2076661;28;20142;-91
2022/01/27 04:14:44;;;;;;;21.27;13.68;;;5.00;92.40;;;;;;2090063;28;20037;-91
2022/01/27 04:15:45;;;;;;;20.48;14.05;;;5.00;92.40;;;;;;2098261;28;20047;-89
2022/01/27 04:16:47;;;;;;;20.15;13.73;;;5.00;92.40;;;;;;2090148;28;20457;-91
2022/01/27 04:17:47;;;;;;;21.42;14.65;;;5.00;92.40;;;;;;2090144;28;20120;-91
2022/01/27 04:18:48;;;;;;;22.75;14.50;;;5.00;92.40;;;;;;2086420;28;20056;-91
2022/01/27 04:19:49;;;;;;;23.02;13.93;;;5.00;92.40;;;;;;2080516;28;20041;-90
2022/01/27 04:20:50;;;;;;;21.30;14.35;;;5.00;92.40;;;;;;2073455;28;20496;-89
2022/01/27 04:21:50;;;;;;;19.27;13.63;;;5.00;92.40;;;;;;2076003;28;20038;-91
2022/01/27 04:22:52;;;;;;;22.35;14.52;;;5.00;92.40;;;;;;2098044;28;21641;-91
2022/01/27 04:23:53;;;;;;;21.88;14.02;;;5.00;92.40;;;;;;2088869;28;20060;-90
2022/01/27 04:24:53;;;;;;;22.50;14.77;;;5.00;92.40;;;;;;2072679;28;20033;-91
2022/01/27 04:25:54;;;;;;;21.45;14.40;;;5.00;92.40;;;;;;2084616;28;20049;-91
2022/01/27 04:27:07;;;;;;;21.05;13.25;;;5.10;92.40;;;;;;2089991;28;20071;-91
2022/01/27 04:28:12;;;;;;;20.17;13.40;;;5.00;92.40;;;;;;2085552;28;20113;-91
2022/01/27 04:29:14;;;;;;;21.10;14.07;;;5.00;92.40;;;;;;2094906;28;20028;-91
2022/01/27 04:30:17;;;;;;;22.88;14.57;;;5.10;92.40;;;;;;2098231;28;20052;-91
2022/01/27 04:31:19;;;;;;;24.63;14.55;;;5.00;92.40;;;;;;2097059;28;20043;-91
2022/01/27 04:32:25;;;;;;;21.38;14.23;;;5.10;92.40;;;;;;2073614;28;20041;-90
2022/01/27 04:33:29;;;;;;;24.02;14.73;;;5.00;92.40;;;;;;2082275;28;20092;-90
2022/01/27 04:34:31;;;;;;;21.77;13.93;;;5.00;92.40;;;;;;2088438;28;20033;-90
2022/01/27 04:35:36;;;;;;;21.27;14.02;;;5.00;92.40;;;;;;2090314;28;20537;-91
2022/01/27 04:36:38;;;;;;;21.33;13.77;;;5.10;92.40;;;;;;2085772;28;20128;-90
2022/01/27 04:37:43;;;;;;;21.77;13.70;;;5.00;92.40;;;;;;2082451;28;20037;-91
2022/01/27 04:38:54;;;;;;;22.63;13.82;;;5.00;92.40;;;;;;2091120;28;20072;-91
2022/01/27 04:40:07;;;;;;;;;;;5.00;92.40;;;;;;2074083;28;20386;-91
2022/01/27 04:42:15;;;;;;;24.58;14.95;;;5.00;92.40;;;;;;2089166;28;20044;-90
2022/01/27 04:45:45;;;;;;;19.08;12.90;;;5.00;92.40;;;;;;2094519;28;20509;-90
2022/01/27 04:47:03;;;;;;;20.63;13.38;;;5.00;92.40;;;;;;2090418;28;20044;-91
2022/01/27 04:48:14;;;;;;;23.10;14.25;;;5.00;92.40;;;;;;2098126;28;20060;-91
2022/01/27 04:49:15;;;;;;;21.48;13.98;;;5.10;92.40;;;;;;2088419;28;20060;-90
2022/01/27 04:50:16;;;;;;;20.90;13.18;;;5.00;92.40;;;;;;2083533;28;20037;-90
2022/01/27 04:51:19;;;;;;;24.42;14.70;;;5.00;92.40;;;;;;2088018;28;20037;-90
2022/01/27 04:52:20;;;;;;;23.25;15.10;;;5.00;92.40;;;;;;2081923;28;20043;-89
2022/01/27 04:53:28;;;;;;;23.40;14.55;;;5.00;92.40;;;;;;2081544;28;20034;-90
2022/01/27 04:54:35;;;;;;;23.00;14.00;;;5.00;92.40;;;;;;2074256;28;20140;-91
2022/01/27 04:55:36;;;;;;;22.65;14.38;;;5.00;92.40;;;;;;2060809;28;20038;-90
2022/01/27 04:56:39;;;;;;;21.17;13.90;;;5.00;92.40;;;;;;2073089;28;20037;-90
2022/01/27 04:57:43;;;;;;;22.52;13.93;;;5.00;92.70;;;;;;2073494;28;20049;-91
2022/01/27 04:58:46;;;;;;;22.83;14.25;;;5.10;92.50;;;;;;2082407;28;20041;-90
2022/01/27 04:59:47;;;;;;;21.08;13.93;;;5.00;92.40;;;;;;2072945;28;20113;-92
2022/01/27 05:00:47;;;;;;;20.48;12.82;;;5.00;92.40;;;;;;2056933;28;20089;-90
2022/01/27 05:01:54;;;;;;;22.67;13.98;;;5.10;92.50;;;;;;2072545;28;20052;-91
2022/01/27 05:02:59;;;;;;;22.55;13.50;;;5.00;92.40;;;;;;2079296;28;20029;-90
2022/01/27 05:04:06;;;;;;;19.92;12.93;;;5.10;92.50;;;;;;2085280;28;20040;-91
2022/01/27 05:05:07;;;;;;;22.98;13.68;;;5.10;92.50;;;;;;2080176;28;20065;-91
2022/01/27 05:06:08;;;;;;;20.70;12.82;;;5.10;92.50;;;;;;2073881;28;20042;-91
2022/01/27 05:07:09;;;;;;;20.80;13.52;;;5.10;92.50;;;;;;2090333;28;20079;-91
2022/01/27 05:08:16;;;;;;;22.83;14.20;;;5.10;92.50;;;;;;2089566;28;20041;-90
2022/01/27 05:09:17;;;;;;;23.38;13.82;;;5.10;92.50;;;;;;2089489;28;20107;-90
2022/01/27 05:10:22;;;;;;;22.67;14.00;;;5.10;92.70;;;;;;2090116;28;20029;-90
2022/01/27 05:11:49;;;;;;;22.23;14.02;;;5.00;92.50;;;;;;2089364;28;20052;-90
2022/01/27 05:12:48;;;;;;;;;;;5.10;92.80;;;;;;2081215;28;20042;-90
2022/01/27 05:14:04;;;;;;;25.08;13.68;;;5.10;92.50;;;;;;2085018;28;20004;-90
2022/01/27 05:15:05;;;;;;;22.70;13.98;;;5.10;92.50;;;;;;2075223;28;20097;-90
2022/01/27 05:16:06;;;;;;;22.00;12.82;;;5.10;92.40;;;;;;2081877;28;20041;-90
2022/01/27 05:17:07;;;;;;;20.83;12.93;;;5.10;92.50;;;;;;2090177;28;20025;-91
2022/01/27 05:18:08;;;;;;;21.45;13.15;;;5.10;92.50;;;;;;2089684;28;20542;-91
2022/01/27 05:19:08;;;;;;;21.55;12.77;;;5.10;92.50;;;;;;2097907;28;20529;-91
2022/01/27 05:20:10;;;;;;;18.45;12.35;;;5.10;92.50;;;;;;2088858;28;20049;-91
2022/01/27 05:21:10;;;;;;;18.70;12.00;;;5.10;92.50;;;;;;2073057;28;20038;-90
2022/01/27 05:22:11;;;;;;;19.23;12.10;;;5.10;92.50;;;;;;2072401;28;20065;-91
2022/01/27 05:23:12;;;;;;;19.65;12.05;;;5.10;92.50;;;;;;2089570;28;20045;-90
2022/01/27 05:24:13;;;;;;;20.02;12.85;;;5.10;92.50;;;;;;2096530;28;20124;-91
2022/01/27 05:25:14;;;;;;;20.33;12.00;;;5.20;92.60;;;;;;2079906;28;20499;-91
2022/01/27 05:26:14;;;;;;;20.60;12.93;;;5.20;92.60;;;;;;2078000;28;20404;-91
2022/01/27 05:27:16;;;;;;;19.60;11.65;;;5.10;92.60;;;;;;2080803;28;20164;-91
2022/01/27 05:28:17;;;;;;;20.95;13.00;;;5.10;92.60;;;;;;2081490;28;20427;-90
2022/01/27 05:29:17;;;;;;;20.00;11.60;;;5.10;92.60;;;;;;2088149;28;20037;-90
2022/01/27 05:30:18;;;;;;;19.13;11.38;;;5.20;92.60;;;;;;2080779;28;20034;-91
2022/01/27 05:31:19;;;;;;;19.70;12.02;;;5.20;92.60;;;;;;2081179;28;20056;-90
2022/01/27 05:32:20;;;;;;;19.02;11.88;;;5.20;92.60;;;;;;2081261;28;20033;-90
2022/01/27 05:33:20;;;;;;;19.42;12.25;;;5.20;92.60;;;;;;2081726;28;20033;-91
2022/01/27 05:34:21;;;;;;;19.45;12.30;;;5.20;92.60;;;;;;2081196;28;20426;-91
2022/01/27 05:35:22;;;;;;;18.98;11.38;;;5.20;92.60;;;;;;2066970;28;20112;-90
2022/01/27 05:36:22;;;;;;;17.88;11.55;;;5.20;92.60;;;;;;2063412;28;20053;-90
2022/01/27 05:37:23;;;;;;;18.75;11.77;;;5.20;92.60;;;;;;2067273;28;20225;-90
2022/01/27 05:38:24;;;;;;;18.83;11.45;;;5.20;92.60;;;;;;2081430;28;20033;-90
2022/01/27 05:39:24;;;;;;;19.27;11.80;;;5.20;92.60;;;;;;2081382;28;20033;-90
2022/01/27 05:40:25;;;;;;;18.98;11.82;;;5.20;92.60;;;;;;2081234;28;20037;-90
2022/01/27 05:41:26;;;;;;;18.52;11.38;;;5.20;92.60;;;;;;2082918;28;20180;-91
2022/01/27 05:42:26;;;;;;;20.95;11.57;;;5.20;92.60;;;;;;2089223;28;20037;-90
2022/01/27 05:43:27;;;;;;;21.13;12.85;;;5.20;92.60;;;;;;2087950;28;20048;-90
2022/01/27 05:44:28;;;;;;;18.75;11.52;;;5.20;92.60;;;;;;2090204;28;20056;-90
2022/01/27 05:45:28;;;;;;;21.33;12.50;;;5.20;92.60;;;;;;2084039;28;20135;-91
2022/01/27 05:46:29;;;;;;;19.23;12.27;;;5.20;92.60;;;;;;2081565;28;20037;-90
2022/01/27 05:47:30;;;;;;;18.73;11.50;;;5.20;92.60;;;;;;2073143;28;20563;-91
2022/01/27 05:48:30;;;;;;;19.27;11.50;;;5.30;93.00;;;;;;2072482;28;20289;-90
2022/01/27 05:49:31;;;;;;;21.33;12.73;;;5.20;92.70;;;;;;2070900;28;20074;-90
2022/01/27 05:50:32;;;;;;;18.40;11.50;;;5.20;92.70;;;;;;2069333;28;20030;-91
2022/01/27 05:51:33;;;;;;;19.08;11.82;;;5.30;92.70;;;;;;2072715;28;20092;-91
2022/01/27 05:52:34;;;;;;;18.45;11.98;;;5.30;92.70;;;;;;2082358;28;20036;-90
2022/01/27 05:53:36;;;;;;;20.52;11.98;;;5.30;92.70;;;;;;2069792;28;20030;-90
2022/01/27 05:54:36;;;;;;;18.13;11.80;;;5.30;92.70;;;;;;2057334;28;20115;-91
2022/01/27 05:55:37;;;;;;;18.17;11.43;;;5.30;92.70;;;;;;2056687;28;20072;-90
2022/01/27 05:56:37;;;;;;;16.85;11.20;;;5.20;92.70;;;;;;2064893;28;22393;-91
2022/01/27 05:57:38;;;;;;;16.95;10.60;;;5.30;92.80;;;;;;2097570;28;20068;-89
2022/01/27 05:58:39;;;;;;;18.08;11.43;;;5.30;92.80;;;;;;2097668;28;20110;-89
2022/01/27 05:59:40;;;;;;;16.48;10.55;;;5.30;92.80;;;;;;2097447;28;20043;-91
2022/01/27 06:00:40;;;;;;;17.58;11.13;;;5.30;92.80;;;;;;2086364;28;20083;-90